Airport View

Enter AWOS ICAO identifier for current METAR.

ex. KFNL

KMAN 080615Z AUTO 00000KT 10SM 16/05 A3003 RMK A01

8 Aug 2020 06:24

Frequency: 118.325

Phone: (208) 318-0040

Other Area AWOS: KEUL - KBOI - KONO - KMUO

TAF KBOI 080520Z 0806/0906 VRB05KT P6SM SKC FM082000 32010KT P6SM SKC FM090300 33005KT P6SM SKC